sensor_id;sensor_type;location;lat;lon;timestamp;pressure;altitude;pressure_sealevel;temperature;humidity
76128;BME280;64873;50.102;14.434;2024-01-30T00:01:42;101135.81;;;-2.03;97.47
76128;BME280;64873;50.102;14.434;2024-01-30T00:04:08;101139.19;;;-2.01;97.89
76128;BME280;64873;50.102;14.434;2024-01-30T00:06:33;101132.16;;;-2.15;97.98
76128;BME280;64873;50.102;14.434;2024-01-30T00:08:58;101125.47;;;-1.90;98.45
76128;BME280;64873;50.102;14.434;2024-01-30T00:11:24;101118.34;;;-1.88;97.31
76128;BME280;64873;50.102;14.434;2024-01-30T00:13:53;101130.22;;;-1.97;97.17
76128;BME280;64873;50.102;14.434;2024-01-30T00:16:22;101136.84;;;-2.05;97.40
76128;BME280;64873;50.102;14.434;2024-01-30T00:18:49;101130.75;;;-2.06;98.04
76128;BME280;64873;50.102;14.434;2024-01-30T00:21:15;101131.31;;;-2.15;97.55
76128;BME280;64873;50.102;14.434;2024-01-30T00:23:40;101125.03;;;-2.12;97.86
76128;BME280;64873;50.102;14.434;2024-01-30T00:26:06;101121.56;;;-2.13;98.49
76128;BME280;64873;50.102;14.434;2024-01-30T00:28:31;101113.56;;;-2.40;98.49
76128;BME280;64873;50.102;14.434;2024-01-30T00:30:56;101107.53;;;-2.26;98.45
76128;BME280;64873;50.102;14.434;2024-01-30T00:33:22;101106.41;;;-2.52;98.40
76128;BME280;64873;50.102;14.434;2024-01-30T00:35:47;101115.97;;;-2.21;99.79
76128;BME280;64873;50.102;14.434;2024-01-30T00:38:13;101111.56;;;-2.21;99.59
76128;BME280;64873;50.102;14.434;2024-01-30T00:40:38;101108.31;;;-2.10;98.46
76128;BME280;64873;50.102;14.434;2024-01-30T00:43:03;101091.63;;;-2.23;97.85
76128;BME280;64873;50.102;14.434;2024-01-30T00:45:29;101115.75;;;-2.48;98.61
76128;BME280;64873;50.102;14.434;2024-01-30T00:47:54;101099.09;;;-2.31;99.05
76128;BME280;64873;50.102;14.434;2024-01-30T00:50:20;101102.66;;;-2.18;98.46
76128;BME280;64873;50.102;14.434;2024-01-30T00:52:45;101086.97;;;-2.48;98.39
76128;BME280;64873;50.102;14.434;2024-01-30T00:55:11;101109.47;;;-2.30;98.04
76128;BME280;64873;50.102;14.434;2024-01-30T00:57:36;101093.53;;;-2.41;98.58
76128;BME280;64873;50.102;14.434;2024-01-30T01:00:02;101116.47;;;-2.30;98.63
76128;BME280;64873;50.102;14.434;2024-01-30T01:02:28;101108.72;;;-2.32;98.53
76128;BME280;64873;50.102;14.434;2024-01-30T01:04:54;101112.03;;;-2.28;98.73
76128;BME280;64873;50.102;14.434;2024-01-30T01:07:19;101094.38;;;-2.41;98.43
76128;BME280;64873;50.102;14.434;2024-01-30T01:09:44;101096.81;;;-2.67;99.27
76128;BME280;64873;50.102;14.434;2024-01-30T01:12:10;101084.47;;;-2.65;99.43
76128;BME280;64873;50.102;14.434;2024-01-30T01:14:35;101095.63;;;-2.62;99.05
76128;BME280;64873;50.102;14.434;2024-01-30T01:17:01;101070.31;;;-2.77;99.72
76128;BME280;64873;50.102;14.434;2024-01-30T01:19:27;101095.31;;;-2.42;100.00
76128;BME280;64873;50.102;14.434;2024-01-30T01:21:52;101090.06;;;-2.42;99.14
76128;BME280;64873;50.102;14.434;2024-01-30T01:24:18;101086.22;;;-2.20;99.12
76128;BME280;64873;50.102;14.434;2024-01-30T01:26:43;101097.53;;;-2.50;99.29
76128;BME280;64873;50.102;14.434;2024-01-30T01:29:09;101076.00;;;-2.25;98.73
76128;BME280;64873;50.102;14.434;2024-01-30T01:31:38;101091.94;;;-2.13;98.05
76128;BME280;64873;50.102;14.434;2024-01-30T01:34:11;101098.78;;;-2.41;98.22
76128;BME280;64873;50.102;14.434;2024-01-30T01:36:36;101072.06;;;-3.08;98.59
76128;BME280;64873;50.102;14.434;2024-01-30T01:39:02;101101.47;;;-2.43;99.41
76128;BME280;64873;50.102;14.434;2024-01-30T01:41:31;101102.03;;;-2.52;99.19
76128;BME280;64873;50.102;14.434;2024-01-30T01:44:00;101102.53;;;-2.31;99.52
76128;BME280;64873;50.102;14.434;2024-01-30T01:46:30;101108.47;;;-2.27;98.88
76128;BME280;64873;50.102;14.434;2024-01-30T01:48:57;101093.53;;;-2.41;98.58
76128;BME280;64873;50.102;14.434;2024-01-30T01:51:24;101096.59;;;-2.49;98.74
76128;BME280;64873;50.102;14.434;2024-01-30T01:53:53;101095.72;;;-2.33;99.50
76128;BME280;64873;50.102;14.434;2024-01-30T01:56:19;101098.72;;;-2.25;99.32
76128;BME280;64873;50.102;14.434;2024-01-30T01:58:46;101085.75;;;-2.57;98.76
76128;BME280;64873;50.102;14.434;2024-01-30T02:01:13;101090.53;;;-2.49;98.97
76128;BME280;64873;50.102;14.434;2024-01-30T02:03:40;101086.88;;;-2.47;99.00
76128;BME280;64873;50.102;14.434;2024-01-30T02:06:06;101093.28;;;-2.36;98.84
76128;BME280;64873;50.102;14.434;2024-01-30T02:08:31;101100.88;;;-2.32;99.48
76128;BME280;64873;50.102;14.434;2024-01-30T02:10:57;101105.66;;;-2.24;99.35
76128;BME280;64873;50.102;14.434;2024-01-30T02:13:23;101096.44;;;-2.46;99.15
76128;BME280;64873;50.102;14.434;2024-01-30T02:15:49;101067.78;;;-2.63;98.68
76128;BME280;64873;50.102;14.434;2024-01-30T02:18:15;101087.94;;;-2.35;99.05
76128;BME280;64873;50.102;14.434;2024-01-30T02:20:41;101083.41;;;-2.47;99.22
76128;BME280;64873;50.102;14.434;2024-01-30T02:23:09;101098.97;;;-2.44;99.50
76128;BME280;64873;50.102;14.434;2024-01-30T02:25:39;101094.22;;;-2.37;100.00
76128;BME280;64873;50.102;14.434;2024-01-30T02:28:14;101081.13;;;-2.37;100.00
76128;BME280;64873;50.102;14.434;2024-01-30T02:30:40;101073.78;;;-2.47;99.35
76128;BME280;64873;50.102;14.434;2024-01-30T02:33:06;101100.97;;;-2.33;99.36
76128;BME280;64873;50.102;14.434;2024-01-30T02:35:31;101095.09;;;-2.53;99.11
76128;BME280;64873;50.102;14.434;2024-01-30T02:37:57;101093.75;;;-2.60;98.81
76128;BME280;64873;50.102;14.434;2024-01-30T02:40:22;101098.25;;;-2.62;98.46
76128;BME280;64873;50.102;14.434;2024-01-30T02:42:48;101088.25;;;-3.01;98.76
76128;BME280;64873;50.102;14.434;2024-01-30T02:45:13;101091.94;;;-2.89;99.88
76128;BME280;64873;50.102;14.434;2024-01-30T02:47:39;101075.41;;;-2.74;99.95
76128;BME280;64873;50.102;14.434;2024-01-30T02:50:05;101069.19;;;-3.19;99.75
76128;BME280;64873;50.102;14.434;2024-01-30T02:52:31;101082.22;;;-2.87;99.76
76128;BME280;64873;50.102;14.434;2024-01-30T02:54:56;101086.94;;;-2.78;100.00
76128;BME280;64873;50.102;14.434;2024-01-30T02:57:22;101070.31;;;-2.77;100.00
76128;BME280;64873;50.102;14.434;2024-01-30T02:59:47;101086.34;;;-2.67;99.24
76128;BME280;64873;50.102;14.434;2024-01-30T03:02:12;101080.81;;;-2.93;99.56
76128;BME280;64873;50.102;14.434;2024-01-30T03:04:40;101089.16;;;-3.02;100.00
76128;BME280;64873;50.102;14.434;2024-01-30T03:07:06;101080.66;;;-3.06;99.57
76128;BME280;64873;50.102;14.434;2024-01-30T03:09:31;101087.06;;;-2.96;100.00
76128;BME280;64873;50.102;14.434;2024-01-30T03:11:56;101083.25;;;-3.06;99.99
76128;BME280;64873;50.102;14.434;2024-01-30T03:14:22;101079.75;;;-3.05;99.77
76128;BME280;64873;50.102;14.434;2024-01-30T03:16:47;101044.13;;;-3.07;100.00
76128;BME280;64873;50.102;14.434;2024-01-30T03:19:13;101052.31;;;-2.98;99.80
76128;BME280;64873;50.102;14.434;2024-01-30T03:21:38;101079.34;;;-2.83;100.00
76128;BME280;64873;50.102;14.434;2024-01-30T03:24:04;101054.47;;;-2.74;100.00
76128;BME280;64873;50.102;14.434;2024-01-30T03:26:29;101070.78;;;-2.55;99.55
76128;BME280;64873;50.102;14.434;2024-01-30T03:28:55;101045.91;;;-3.08;98.48
76128;BME280;64873;50.102;14.434;2024-01-30T03:31:20;101071.81;;;-3.19;98.97
76128;BME280;64873;50.102;14.434;2024-01-30T03:33:45;101060.22;;;-2.99;99.58
76128;BME280;64873;50.102;14.434;2024-01-30T03:36:11;101062.25;;;-2.88;99.95
76128;BME280;64873;50.102;14.434;2024-01-30T03:38:36;101052.66;;;-3.04;100.00
76128;BME280;64873;50.102;14.434;2024-01-30T03:41:02;101063.06;;;-2.88;100.00
76128;BME280;64873;50.102;14.434;2024-01-30T03:43:28;101043.56;;;-2.82;100.00
76128;BME280;64873;50.102;14.434;2024-01-30T03:45:53;101070.25;;;-2.46;99.85
76128;BME280;64873;50.102;14.434;2024-01-30T03:48:20;101059.75;;;-2.60;99.53
76128;BME280;64873;50.102;14.434;2024-01-30T03:50:46;101062.91;;;-2.69;98.30
76128;BME280;64873;50.102;14.434;2024-01-30T03:53:11;101044.69;;;-2.86;98.54
76128;BME280;64873;50.102;14.434;2024-01-30T03:55:37;101057.91;;;-2.58;98.47
76128;BME280;64873;50.102;14.434;2024-01-30T03:58:02;101041.63;;;-2.63;98.33
76128;BME280;64873;50.102;14.434;2024-01-30T04:00:27;101053.88;;;-2.79;98.23
76128;BME280;64873;50.102;14.434;2024-01-30T04:02:53;101047.03;;;-2.82;98.61
76128;BME280;64873;50.102;14.434;2024-01-30T04:05:18;101054.34;;;-3.03;99.43
76128;BME280;64873;50.102;14.434;2024-01-30T04:07:44;101041.16;;;-3.17;99.53
76128;BME280;64873;50.102;14.434;2024-01-30T04:10:09;101023.81;;;-3.18;100.00
76128;BME280;64873;50.102;14.434;2024-01-30T04:12:35;101044.91;;;-3.21;100.00
76128;BME280;64873;50.102;14.434;2024-01-30T04:15:01;101042.63;;;-3.27;100.00
76128;BME280;64873;50.102;14.434;2024-01-30T04:17:27;101038.81;;;-3.06;100.00
76128;BME280;64873;50.102;14.434;2024-01-30T04:19:54;101040.81;;;-2.79;100.00
76128;BME280;64873;50.102;14.434;2024-01-30T04:22:19;101048.75;;;-2.51;100.00
76128;BME280;64873;50.102;14.434;2024-01-30T04:24:45;101049.00;;;-2.55;100.00
76128;BME280;64873;50.102;14.434;2024-01-30T04:27:10;101047.38;;;-2.72;100.00
76128;BME280;64873;50.102;14.434;2024-01-30T04:29:36;101026.50;;;-3.04;100.00
76128;BME280;64873;50.102;14.434;2024-01-30T04:32:01;101063.16;;;-2.44;100.00
76128;BME280;64873;50.102;14.434;2024-01-30T04:34:26;101054.38;;;-2.43;100.00
76128;BME280;64873;50.102;14.434;2024-01-30T04:36:52;101021.03;;;-2.69;98.78
76128;BME280;64873;50.102;14.434;2024-01-30T04:39:17;101057.22;;;-2.61;98.50
76128;BME280;64873;50.102;14.434;2024-01-30T04:41:43;101041.63;;;-2.63;98.50
76128;BME280;64873;50.102;14.434;2024-01-30T04:44:08;101044.50;;;-2.67;99.23
76128;BME280;64873;50.102;14.434;2024-01-30T04:46:33;101050.22;;;-2.61;98.60
76128;BME280;64873;50.102;14.434;2024-01-30T04:48:59;101061.50;;;-2.60;98.47
76128;BME280;64873;50.102;14.434;2024-01-30T04:51:25;101050.31;;;-2.62;98.63
76128;BME280;64873;50.102;14.434;2024-01-30T04:53:50;101057.00;;;-2.88;98.48
76128;BME280;64873;50.102;14.434;2024-01-30T04:56:16;101053.44;;;-2.72;98.73
76128;BME280;64873;50.102;14.434;2024-01-30T04:58:41;101055.97;;;-2.70;98.97
76128;BME280;64873;50.102;14.434;2024-01-30T05:01:06;101047.63;;;-2.77;98.97
76128;BME280;64873;50.102;14.434;2024-01-30T05:03:35;101054.63;;;-2.77;99.57
76128;BME280;64873;50.102;14.434;2024-01-30T05:06:01;101061.53;;;-2.76;98.96
76128;BME280;64873;50.102;14.434;2024-01-30T05:08:26;101058.88;;;-2.90;99.31
76128;BME280;64873;50.102;14.434;2024-01-30T05:10:51;101065.34;;;-2.82;99.86
76128;BME280;64873;50.102;14.434;2024-01-30T05:13:17;101069.28;;;-3.05;99.52
76128;BME280;64873;50.102;14.434;2024-01-30T05:15:42;101075.50;;;-2.91;99.73
76128;BME280;64873;50.102;14.434;2024-01-30T05:18:08;101065.44;;;-2.83;100.00
76128;BME280;64873;50.102;14.434;2024-01-30T05:20:33;101071.25;;;-2.78;100.00
76128;BME280;64873;50.102;14.434;2024-01-30T05:22:59;101067.19;;;-2.68;99.93
76128;BME280;64873;50.102;14.434;2024-01-30T05:25:24;101055.66;;;-2.96;98.20
76128;BME280;64873;50.102;14.434;2024-01-30T05:27:49;101077.06;;;-2.73;98.46
76128;BME280;64873;50.102;14.434;2024-01-30T05:30:15;101077.06;;;-2.73;97.75
76128;BME280;64873;50.102;14.434;2024-01-30T05:32:40;101072.44;;;-2.84;98.06
76128;BME280;64873;50.102;14.434;2024-01-30T05:35:06;101059.13;;;-2.95;97.83
76128;BME280;64873;50.102;14.434;2024-01-30T05:37:33;101075.75;;;-2.80;97.74
76128;BME280;64873;50.102;14.434;2024-01-30T05:39:58;101075.41;;;-2.90;98.21
76128;BME280;64873;50.102;14.434;2024-01-30T05:42:24;101067.81;;;-2.95;97.94
76128;BME280;64873;50.102;14.434;2024-01-30T05:44:50;101070.53;;;-2.96;98.01
76128;BME280;64873;50.102;14.434;2024-01-30T05:47:15;101072.56;;;-3.01;98.51
76128;BME280;64873;50.102;14.434;2024-01-30T05:49:41;101061.75;;;-3.11;98.17
76128;BME280;64873;50.102;14.434;2024-01-30T05:52:07;101055.13;;;-3.16;98.06
76128;BME280;64873;50.102;14.434;2024-01-30T05:54:32;101048.03;;;-3.14;98.47
76128;BME280;64873;50.102;14.434;2024-01-30T05:56:58;101067.22;;;-3.00;98.83
76128;BME280;64873;50.102;14.434;2024-01-30T05:59:23;101062.44;;;-2.91;98.46
76128;BME280;64873;50.102;14.434;2024-01-30T06:01:48;101067.66;;;-2.91;98.56
76128;BME280;64873;50.102;14.434;2024-01-30T06:04:14;101051.97;;;-2.91;98.76
76128;BME280;64873;50.102;14.434;2024-01-30T06:06:40;101043.03;;;-3.19;97.66
76128;BME280;64873;50.102;14.434;2024-01-30T06:09:06;101063.06;;;-2.88;98.04
76128;BME280;64873;50.102;14.434;2024-01-30T06:11:34;101064.09;;;-2.90;97.64
76128;BME280;64873;50.102;14.434;2024-01-30T06:13:59;101064.13;;;-3.06;97.59
76128;BME280;64873;50.102;14.434;2024-01-30T06:16:25;101066.97;;;-3.11;97.71
76128;BME280;64873;50.102;14.434;2024-01-30T06:18:55;101060.41;;;-3.02;97.96
76128;BME280;64873;50.102;14.434;2024-01-30T06:21:20;101056.28;;;-3.22;97.57
76128;BME280;64873;50.102;14.434;2024-01-30T06:23:45;101065.47;;;-3.15;98.17
76128;BME280;64873;50.102;14.434;2024-01-30T06:26:11;101058.03;;;-3.07;98.95
76128;BME280;64873;50.102;14.434;2024-01-30T06:28:36;101066.97;;;-2.95;98.69
76128;BME280;64873;50.102;14.434;2024-01-30T06:31:02;101054.34;;;-3.18;97.64
76128;BME280;64873;50.102;14.434;2024-01-30T06:33:27;101051.81;;;-3.20;97.37
76128;BME280;64873;50.102;14.434;2024-01-30T06:35:52;101077.59;;;-2.82;98.43
76128;BME280;64873;50.102;14.434;2024-01-30T06:38:18;101074.06;;;-3.13;97.52
76128;BME280;64873;50.102;14.434;2024-01-30T06:40:43;101075.94;;;-3.15;97.42
76128;BME280;64873;50.102;14.434;2024-01-30T06:43:09;101089.28;;;-3.04;97.23
76128;BME280;64873;50.102;14.434;2024-01-30T06:45:34;101079.63;;;-3.19;97.74
76128;BME280;64873;50.102;14.434;2024-01-30T06:48:00;101096.00;;;-3.15;97.71
76128;BME280;64873;50.102;14.434;2024-01-30T06:50:25;101089.59;;;-3.10;96.64
76128;BME280;64873;50.102;14.434;2024-01-30T06:52:51;101081.56;;;-3.07;97.23
76128;BME280;64873;50.102;14.434;2024-01-30T06:55:17;101088.47;;;-3.06;97.32
76128;BME280;64873;50.102;14.434;2024-01-30T06:57:43;101082.84;;;-3.14;97.24
76128;BME280;64873;50.102;14.434;2024-01-30T07:00:08;101091.53;;;-2.98;97.41
76128;BME280;64873;50.102;14.434;2024-01-30T07:02:34;101091.44;;;-2.96;97.46
76128;BME280;64873;50.102;14.434;2024-01-30T07:04:59;101096.69;;;-2.96;96.90
76128;BME280;64873;50.102;14.434;2024-01-30T07:07:24;101076.53;;;-3.10;97.17
76128;BME280;64873;50.102;14.434;2024-01-30T07:09:50;101076.44;;;-2.92;97.42
76128;BME280;64873;50.102;14.434;2024-01-30T07:12:20;101096.34;;;-2.90;97.79
76128;BME280;64873;50.102;14.434;2024-01-30T07:14:46;101102.31;;;-2.72;96.89
76128;BME280;64873;50.102;14.434;2024-01-30T07:17:11;101100.28;;;-2.67;96.32
76128;BME280;64873;50.102;14.434;2024-01-30T07:19:37;101088.88;;;-2.82;96.20
76128;BME280;64873;50.102;14.434;2024-01-30T07:22:02;101100.63;;;-2.73;96.57
76128;BME280;64873;50.102;14.434;2024-01-30T07:24:28;101098.84;;;-2.88;95.58
76128;BME280;64873;50.102;14.434;2024-01-30T07:26:53;101097.31;;;-2.61;95.91
76128;BME280;64873;50.102;14.434;2024-01-30T07:29:19;101101.38;;;-2.71;95.71
76128;BME280;64873;50.102;14.434;2024-01-30T07:31:44;101085.19;;;-2.93;95.54
76128;BME280;64873;50.102;14.434;2024-01-30T07:34:09;101100.28;;;-2.67;95.35
76128;BME280;64873;50.102;14.434;2024-01-30T07:36:35;101097.78;;;-2.54;95.61
76128;BME280;64873;50.102;14.434;2024-01-30T07:39:01;101103.00;;;-2.38;95.22
76128;BME280;64873;50.102;14.434;2024-01-30T07:41:26;101107.63;;;-2.58;94.54
76128;BME280;64873;50.102;14.434;2024-01-30T07:43:52;101109.44;;;-2.44;94.15
76128;BME280;64873;50.102;14.434;2024-01-30T07:46:18;101118.72;;;-2.54;94.18
76128;BME280;64873;50.102;14.434;2024-01-30T07:48:44;101120.47;;;-2.85;95.08
76128;BME280;64873;50.102;14.434;2024-01-30T07:51:09;101094.09;;;-2.66;96.09
76128;BME280;64873;50.102;14.434;2024-01-30T07:53:34;101121.41;;;-2.40;96.65
76128;BME280;64873;50.102;14.434;2024-01-30T07:56:00;101103.13;;;-2.56;95.38
76128;BME280;64873;50.102;14.434;2024-01-30T07:58:25;101124.16;;;-2.73;95.21
76128;BME280;64873;50.102;14.434;2024-01-30T08:00:52;101110.84;;;-2.38;96.15
76128;BME280;64873;50.102;14.434;2024-01-30T08:03:18;101097.16;;;-2.58;96.60
76128;BME280;64873;50.102;14.434;2024-01-30T08:05:44;101093.09;;;-2.63;96.56
76128;BME280;64873;50.102;14.434;2024-01-30T08:08:09;101107.25;;;-2.52;94.93
76128;BME280;64873;50.102;14.434;2024-01-30T08:10:35;101105.38;;;-2.34;95.15
76128;BME280;64873;50.102;14.434;2024-01-30T08:13:01;101111.59;;;-2.36;94.38
76128;BME280;64873;50.102;14.434;2024-01-30T08:15:27;101087.81;;;-2.48;93.26
76128;BME280;64873;50.102;14.434;2024-01-30T08:17:52;101115.50;;;-2.44;93.61
76128;BME280;64873;50.102;14.434;2024-01-30T08:20:23;101089.06;;;-2.69;94.04
76128;BME280;64873;50.102;14.434;2024-01-30T08:22:48;101106.97;;;-2.47;94.30
76128;BME280;64873;50.102;14.434;2024-01-30T08:25:14;101088.50;;;-2.44;94.94
76128;BME280;64873;50.102;14.434;2024-01-30T08:27:39;101097.41;;;-2.32;93.93
76128;BME280;64873;50.102;14.434;2024-01-30T08:30:06;101099.94;;;-2.31;93.41
76128;BME280;64873;50.102;14.434;2024-01-30T08:32:32;101102.09;;;-2.23;93.66
76128;BME280;64873;50.102;14.434;2024-01-30T08:34:57;101084.47;;;-2.35;94.11
76128;BME280;64873;50.102;14.434;2024-01-30T08:37:23;101081.50;;;-2.29;92.75
76128;BME280;64873;50.102;14.434;2024-01-30T08:39:48;101107.84;;;-2.17;92.73
76128;BME280;64873;50.102;14.434;2024-01-30T08:42:14;101094.66;;;-2.15;93.26
76128;BME280;64873;50.102;14.434;2024-01-30T08:44:39;101104.19;;;-2.00;92.75
76128;BME280;64873;50.102;14.434;2024-01-30T08:47:05;101081.09;;;-2.07;92.57
76128;BME280;64873;50.102;14.434;2024-01-30T08:49:31;101073.69;;;-2.15;91.86
76128;BME280;64873;50.102;14.434;2024-01-30T08:51:56;101075.75;;;-2.20;92.54
76128;BME280;64873;50.102;14.434;2024-01-30T08:54:23;101097.78;;;-1.80;92.35
76128;BME280;64873;50.102;14.434;2024-01-30T08:56:48;101101.03;;;-2.05;91.72
76128;BME280;64873;50.102;14.434;2024-01-30T08:59:14;101109.41;;;-1.70;91.38
76128;BME280;64873;50.102;14.434;2024-01-30T09:01:39;101096.47;;;-1.73;90.65
76128;BME280;64873;50.102;14.434;2024-01-30T09:04:05;101091.59;;;-1.50;91.95
76128;BME280;64873;50.102;14.434;2024-01-30T09:06:30;101096.00;;;-1.22;93.61
76128;BME280;64873;50.102;14.434;2024-01-30T09:08:56;101096.00;;;-1.22;90.72
76128;BME280;64873;50.102;14.434;2024-01-30T09:11:23;101094.50;;;-1.41;90.21
76128;BME280;64873;50.102;14.434;2024-01-30T09:13:48;101078.97;;;-1.58;89.46
76128;BME280;64873;50.102;14.434;2024-01-30T09:16:14;101094.47;;;-0.85;91.17
76128;BME280;64873;50.102;14.434;2024-01-30T09:18:41;101094.75;;;-1.17;90.28
76128;BME280;64873;50.102;14.434;2024-01-30T09:21:06;101087.97;;;-1.07;91.05
76128;BME280;64873;50.102;14.434;2024-01-30T09:23:32;101091.25;;;-1.03;92.47
76128;BME280;64873;50.102;14.434;2024-01-30T09:25:57;101088.78;;;-1.33;91.49
76128;BME280;64873;50.102;14.434;2024-01-30T09:28:23;101093.94;;;-1.17;89.63
76128;BME280;64873;50.102;14.434;2024-01-30T09:30:48;101080.16;;;-1.21;88.82
76128;BME280;64873;50.102;14.434;2024-01-30T09:33:14;101102.53;;;-0.88;88.87
76128;BME280;64873;50.102;14.434;2024-01-30T09:35:39;101093.53;;;-1.11;89.72
76128;BME280;64873;50.102;14.434;2024-01-30T09:38:04;101101.63;;;-1.43;89.94
76128;BME280;64873;50.102;14.434;2024-01-30T09:40:30;101106.03;;;-1.43;91.39
76128;BME280;64873;50.102;14.434;2024-01-30T09:42:56;101109.09;;;-1.65;91.75
76128;BME280;64873;50.102;14.434;2024-01-30T09:45:25;101077.84;;;-1.68;92.19
76128;BME280;64873;50.102;14.434;2024-01-30T09:47:52;101104.44;;;-1.46;92.24
76128;BME280;64873;50.102;14.434;2024-01-30T09:50:18;101075.59;;;-1.60;92.04
76128;BME280;64873;50.102;14.434;2024-01-30T09:52:45;101071.19;;;-1.59;92.52
76128;BME280;64873;50.102;14.434;2024-01-30T09:55:11;101094.28;;;-1.23;91.75
76128;BME280;64873;50.102;14.434;2024-01-30T09:57:37;101091.19;;;-1.16;91.76
76128;BME280;64873;50.102;14.434;2024-01-30T10:00:03;101065.44;;;-1.23;91.91
76128;BME280;64873;50.102;14.434;2024-01-30T10:02:31;101090.19;;;-1.00;91.21
76128;BME280;64873;50.102;14.434;2024-01-30T10:04:57;101067.09;;;-1.08;91.64
76128;BME280;64873;50.102;14.434;2024-01-30T10:07:22;101087.75;;;-0.89;90.81
76128;BME280;64873;50.102;14.434;2024-01-30T10:09:48;101054.97;;;-0.69;91.04
76128;BME280;64873;50.102;14.434;2024-01-30T10:12:15;101078.91;;;-0.61;89.87
76128;BME280;64873;50.102;14.434;2024-01-30T10:14:41;101083.41;;;-0.76;90.15
76128;BME280;64873;50.102;14.434;2024-01-30T10:17:08;101058.31;;;-0.67;90.36
76128;BME280;64873;50.102;14.434;2024-01-30T10:19:34;101052.44;;;0.33;92.81
76128;BME280;64873;50.102;14.434;2024-01-30T10:22:00;101066.25;;;0.73;90.29
76128;BME280;64873;50.102;14.434;2024-01-30T10:24:26;101068.22;;;0.07;87.44
76128;BME280;64873;50.102;14.434;2024-01-30T10:26:53;101063.75;;;0.46;85.80
76128;BME280;64873;50.102;14.434;2024-01-30T10:29:18;101034.06;;;0.57;86.00
76128;BME280;64873;50.102;14.434;2024-01-30T10:31:44;101047.53;;;0.52;85.42
76128;BME280;64873;50.102;14.434;2024-01-30T10:34:09;101057.25;;;0.88;84.67
76128;BME280;64873;50.102;14.434;2024-01-30T10:36:40;101055.47;;;0.89;84.09
76128;BME280;64873;50.102;14.434;2024-01-30T10:39:08;101057.78;;;0.80;83.99
76128;BME280;64873;50.102;14.434;2024-01-30T10:41:47;101038.94;;;0.87;82.83
76128;BME280;64873;50.102;14.434;2024-01-30T10:44:18;101044.22;;;0.74;83.73
76128;BME280;64873;50.102;14.434;2024-01-30T10:46:50;101056.19;;;0.91;84.13
76128;BME280;64873;50.102;14.434;2024-01-30T10:49:16;101058.19;;;0.87;83.92
76128;BME280;64873;50.102;14.434;2024-01-30T10:51:42;101055.09;;;0.69;84.41
76128;BME280;64873;50.102;14.434;2024-01-30T10:54:08;101044.50;;;0.95;82.87
76128;BME280;64873;50.102;14.434;2024-01-30T10:56:35;101041.03;;;0.94;83.13
76128;BME280;64873;50.102;14.434;2024-01-30T10:59:01;101028.13;;;0.78;83.72
76128;BME280;64873;50.102;14.434;2024-01-30T11:01:27;101034.28;;;0.66;83.71
76128;BME280;64873;50.102;14.434;2024-01-30T11:03:54;101055.72;;;0.73;84.28
76128;BME280;64873;50.102;14.434;2024-01-30T11:06:25;101037.50;;;0.70;85.13
76128;BME280;64873;50.102;14.434;2024-01-30T11:09:01;101034.56;;;0.98;86.99
76128;BME280;64873;50.102;14.434;2024-01-30T11:11:28;101017.47;;;0.80;85.29
76128;BME280;64873;50.102;14.434;2024-01-30T11:13:53;101032.94;;;1.32;86.62
76128;BME280;64873;50.102;14.434;2024-01-30T11:16:20;101030.88;;;1.25;85.03
76128;BME280;64873;50.102;14.434;2024-01-30T11:18:50;101032.44;;;0.79;83.80
76128;BME280;64873;50.102;14.434;2024-01-30T11:21:16;101031.16;;;1.09;83.01
76128;BME280;64873;50.102;14.434;2024-01-30T11:23:42;101019.28;;;1.03;82.31
76128;BME280;64873;50.102;14.434;2024-01-30T11:26:10;101006.63;;;1.09;82.71
76128;BME280;64873;50.102;14.434;2024-01-30T11:28:37;101008.94;;;1.13;82.48
76128;BME280;64873;50.102;14.434;2024-01-30T11:31:07;101005.28;;;1.03;83.33
76128;BME280;64873;50.102;14.434;2024-01-30T11:33:33;101016.31;;;1.08;85.28
76128;BME280;64873;50.102;14.434;2024-01-30T11:36:00;101008.34;;;0.73;84.36
76128;BME280;64873;50.102;14.434;2024-01-30T11:38:26;101013.91;;;1.05;84.17
76128;BME280;64873;50.102;14.434;2024-01-30T11:40:56;101010.59;;;0.90;85.38
76128;BME280;64873;50.102;14.434;2024-01-30T11:43:22;101009.00;;;0.76;84.11
76128;BME280;64873;50.102;14.434;2024-01-30T11:45:49;101004.41;;;1.62;87.67
76128;BME280;64873;50.102;14.434;2024-01-30T11:48:14;100986.75;;;1.40;83.84
76128;BME280;64873;50.102;14.434;2024-01-30T11:50:40;100985.34;;;1.58;85.47
76128;BME280;64873;50.102;14.434;2024-01-30T11:53:10;101005.97;;;1.53;83.49
76128;BME280;64873;50.102;14.434;2024-01-30T11:55:35;101005.56;;;1.46;83.21
76128;BME280;64873;50.102;14.434;2024-01-30T11:58:03;100986.00;;;1.26;83.36
76128;BME280;64873;50.102;14.434;2024-01-30T12:00:29;100974.66;;;1.02;82.28
76128;BME280;64873;50.102;14.434;2024-01-30T12:02:56;100996.03;;;1.21;83.14
76128;BME280;64873;50.102;14.434;2024-01-30T12:05:25;100981.63;;;1.14;82.25
76128;BME280;64873;50.102;14.434;2024-01-30T12:07:51;100975.63;;;1.01;81.95
76128;BME280;64873;50.102;14.434;2024-01-30T12:10:17;100982.41;;;1.27;84.53
76128;BME280;64873;50.102;14.434;2024-01-30T12:12:47;100988.81;;;1.12;82.48
76128;BME280;64873;50.102;14.434;2024-01-30T12:15:13;100984.19;;;1.27;81.31
76128;BME280;64873;50.102;14.434;2024-01-30T12:17:39;100972.13;;;1.24;83.73
76128;BME280;64873;50.102;14.434;2024-01-30T12:20:10;100979.69;;;0.57;83.85
76128;BME280;64873;50.102;14.434;2024-01-30T12:22:36;100969.91;;;0.59;84.33
76128;BME280;64873;50.102;14.434;2024-01-30T12:25:04;100975.06;;;0.85;84.27
76128;BME280;64873;50.102;14.434;2024-01-30T12:27:29;100973.66;;;1.27;84.36
76128;BME280;64873;50.102;14.434;2024-01-30T12:29:58;100948.91;;;1.29;83.12
76128;BME280;64873;50.102;14.434;2024-01-30T12:32:23;100966.03;;;1.46;82.19
76128;BME280;64873;50.102;14.434;2024-01-30T12:34:49;100947.94;;;0.95;83.50